Terminal Aerodrome Forecast
Issued by NWS

Home | Current Version | Previous Version | Text Only | Print | Product List | Glossary On
Versions: 1 2 3 4 5 6 7 8 9 10
000
FTUS46 KSGX 270500
TAFTRM
TAF
KTRM 270536Z 2706/2806 32005KT P6SM SKC WS020/36025KT
     FM271400 33011KT P6SM SKC
     FM280100 VRB05KT P6SM SKC=

USA.gov is the U.S. government's official web portal to all federal, state and local government web resources and services.